createdAt,value
2018-07-21T00:01:06.934Z,94.60
2018-07-21T00:03:40.362Z,94.60
2018-07-21T00:06:14.341Z,94.80
2018-07-21T00:08:47.076Z,95.40
2018-07-21T00:11:17.885Z,95.00
2018-07-21T00:16:22.222Z,94.00
2018-07-21T00:18:51.122Z,93.90
2018-07-21T00:21:20.026Z,93.50
2018-07-21T00:23:48.957Z,93.20
2018-07-21T00:26:18.805Z,93.20
2018-07-21T00:28:57.509Z,93.40
2018-07-21T00:31:28.377Z,93.70
2018-07-21T00:34:00.577Z,94.10
2018-07-21T00:36:30.445Z,94.50
2018-07-21T00:39:02.654Z,95.20
2018-07-21T00:41:33.565Z,95.70
2018-07-21T00:44:02.481Z,95.50
2018-07-21T00:46:31.317Z,95.70
2018-07-21T00:49:06.305Z,95.10
2018-07-21T00:51:35.265Z,95.00
2018-07-21T00:54:06.090Z,95.50
2018-07-21T00:59:05.445Z,95.90
2018-07-21T01:01:34.301Z,95.50
2018-07-21T01:04:06.591Z,95.10
2018-07-21T01:06:39.041Z,94.70
2018-07-21T01:09:10.665Z,94.30
2018-07-21T01:11:44.721Z,94.00
2018-07-21T01:14:19.445Z,93.90
2018-07-21T01:16:54.893Z,93.90
2018-07-21T01:19:30.857Z,93.60
2018-07-21T01:21:59.681Z,93.70
2018-07-21T01:24:32.989Z,93.50
2018-07-21T01:27:02.890Z,93.40
2018-07-21T01:29:31.764Z,93.50
2018-07-21T01:32:00.582Z,93.60
2018-07-21T01:34:32.805Z,93.90
2018-07-21T01:37:01.610Z,94.40
2018-07-21T01:39:30.377Z,94.20
2018-07-21T01:42:00.321Z,94.30
2018-07-21T01:44:32.537Z,94.50
2018-07-21T01:47:05.233Z,94.60
2018-07-21T01:49:34.109Z,95.10
2018-07-21T01:52:03.913Z,95.60
2018-07-21T01:54:32.949Z,96.00
2018-07-21T01:57:01.806Z,96.00
2018-07-21T01:59:30.721Z,96.80
2018-07-21T02:01:59.603Z,97.10
2018-07-21T02:04:29.565Z,97.80
2018-07-21T02:06:59.449Z,97.80
2018-07-21T02:09:30.337Z,98.30
2018-07-21T02:11:59.209Z,98.80
2018-07-21T02:17:21.733Z,99.90
2018-07-21T02:19:52.701Z,99.90
2018-07-21T02:22:21.581Z,99.90
2018-07-21T02:24:56.623Z,99.90
2018-07-21T02:27:28.853Z,99.90
2018-07-21T02:29:57.723Z,99.90
2018-07-21T02:32:31.431Z,99.90
2018-07-21T02:35:02.257Z,99.90
2018-07-21T02:37:31.169Z,99.90
2018-07-21T02:40:07.623Z,99.90
2018-07-21T02:42:36.613Z,99.90
2018-07-21T02:45:09.885Z,99.90
2018-07-21T02:47:38.720Z,99.90
2018-07-21T02:50:07.685Z,99.90
2018-07-21T02:52:39.937Z,99.90
2018-07-21T02:57:39.449Z,99.90
2018-07-21T03:00:08.332Z,99.90
2018-07-21T03:02:37.169Z,99.90
2018-07-21T03:05:07.017Z,99.90
2018-07-21T03:07:36.877Z,99.90
2018-07-21T03:10:05.967Z,99.90
2018-07-21T03:12:44.899Z,99.90
2018-07-21T03:15:13.685Z,99.90
2018-07-21T03:17:43.529Z,99.90
2018-07-21T03:20:14.594Z,99.90
2018-07-21T03:22:43.452Z,99.90
2018-07-21T03:25:20.441Z,99.90
2018-07-21T03:27:49.308Z,99.90
2018-07-21T03:30:31.529Z,99.90
2018-07-21T03:33:05.808Z,99.90
2018-07-21T03:35:34.692Z,99.90
2018-07-21T03:38:03.565Z,99.90
2018-07-21T03:43:03.972Z,99.90
2018-07-21T03:45:32.820Z,99.90
2018-07-21T03:48:05.262Z,99.90
2018-07-21T03:50:34.213Z,99.90
2018-07-21T03:53:04.657Z,99.90
2018-07-21T03:55:39.292Z,99.90
2018-07-21T03:58:08.188Z,99.90
2018-07-21T04:00:40.473Z,99.90
2018-07-21T04:03:14.808Z,99.90
2018-07-21T04:05:43.620Z,99.90
2018-07-21T04:08:12.536Z,99.90
2018-07-21T04:10:41.436Z,99.90
2018-07-21T04:13:11.311Z,99.90
2018-07-21T04:15:43.177Z,99.90
2018-07-21T04:18:12.965Z,99.90
2018-07-21T04:20:41.849Z,99.90
2018-07-21T04:23:17.641Z,99.90
2018-07-21T04:25:46.561Z,99.90
2018-07-21T04:28:17.476Z,99.90
2018-07-21T04:30:51.596Z,99.90
2018-07-21T04:33:20.460Z,99.90
2018-07-21T04:35:51.336Z,99.90
2018-07-21T04:38:26.125Z,99.90
2018-07-21T04:40:55.049Z,99.90
2018-07-21T04:43:26.965Z,99.90
2018-07-21T04:46:01.719Z,99.90
2018-07-21T04:48:31.601Z,99.90
2018-07-21T04:51:02.397Z,99.90
2018-07-21T04:53:43.241Z,99.90
2018-07-21T04:56:14.030Z,99.90
2018-07-21T04:58:42.927Z,99.90
2018-07-21T05:01:11.808Z,99.90
2018-07-21T05:03:42.612Z,99.90
2018-07-21T05:06:11.419Z,99.90
2018-07-21T05:08:40.680Z,99.90
2018-07-21T05:11:16.475Z,99.90
2018-07-21T05:13:45.221Z,99.90
2018-07-21T05:16:26.052Z,99.90
2018-07-21T05:18:54.902Z,99.90
2018-07-21T05:21:23.688Z,99.90
2018-07-21T05:23:54.584Z,99.90
2018-07-21T05:26:31.876Z,99.90
2018-07-21T05:29:04.032Z,99.90
2018-07-21T05:31:37.935Z,99.90
2018-07-21T05:34:08.716Z,99.90
2018-07-21T05:36:42.652Z,99.90
2018-07-21T05:39:12.512Z,99.90
2018-07-21T05:41:42.468Z,99.90
2018-07-21T05:46:46.576Z,99.90
2018-07-21T05:49:19.191Z,99.90
2018-07-21T05:51:48.108Z,99.90
2018-07-21T05:54:18.140Z,99.90
2018-07-21T05:56:48.033Z,99.90
2018-07-21T05:59:23.357Z,99.90
2018-07-21T06:02:14.781Z,99.90
2018-07-21T06:04:54.740Z,99.90
2018-07-21T06:07:28.221Z,99.90
2018-07-21T06:10:02.649Z,99.90
2018-07-21T06:12:31.557Z,99.90
2018-07-21T06:15:11.492Z,99.90
2018-07-21T06:17:40.356Z,99.90
2018-07-21T06:20:09.141Z,99.90
2018-07-21T06:22:38.021Z,99.90
2018-07-21T06:25:08.474Z,99.90
2018-07-21T06:27:37.257Z,99.90
2018-07-21T06:30:09.612Z,99.90
2018-07-21T06:32:43.461Z,99.90
2018-07-21T06:35:13.173Z,99.90
2018-07-21T06:37:42.021Z,99.90
2018-07-21T06:40:10.813Z,99.90
2018-07-21T06:42:41.780Z,99.90
2018-07-21T06:45:11.617Z,99.90
2018-07-21T06:47:42.436Z,99.90
2018-07-21T06:50:11.333Z,99.90
2018-07-21T06:52:56.090Z,99.90
2018-07-21T06:55:26.009Z,99.90
2018-07-21T06:57:56.804Z,99.90
2018-07-21T07:00:33.700Z,99.90
2018-07-21T07:03:07.096Z,99.90
2018-07-21T07:05:42.133Z,99.90
2018-07-21T07:08:18.880Z,99.90
2018-07-21T07:10:53.220Z,99.90
2018-07-21T07:13:25.052Z,99.90
2018-07-21T07:15:59.002Z,99.90
2018-07-21T07:18:27.844Z,99.90
2018-07-21T07:21:18.874Z,99.90
2018-07-21T07:23:48.728Z,99.90
2018-07-21T07:26:18.708Z,99.90
2018-07-21T07:28:48.540Z,99.90
2018-07-21T07:31:18.492Z,99.90
2018-07-21T07:33:47.488Z,99.90
2018-07-21T07:36:18.308Z,99.90
2018-07-21T07:38:48.156Z,99.90
2018-07-21T07:43:56.140Z,99.90
2018-07-21T07:46:29.872Z,99.90
2018-07-21T07:49:00.689Z,99.90
2018-07-21T07:51:30.427Z,99.90
2018-07-21T07:56:36.976Z,99.90
2018-07-21T07:59:05.776Z,99.90
2018-07-21T08:01:41.316Z,99.90
2018-07-21T08:04:22.340Z,99.90
2018-07-21T08:06:52.120Z,99.90
2018-07-21T08:09:24.888Z,99.90
2018-07-21T08:15:03.092Z,99.90
2018-07-21T08:17:32.968Z,99.90
2018-07-21T08:20:08.348Z,99.90
2018-07-21T08:22:43.176Z,99.90
2018-07-21T08:25:19.792Z,99.90
2018-07-21T08:27:51.331Z,99.90
2018-07-21T08:30:26.213Z,99.90
2018-07-21T08:33:00.189Z,99.90
2018-07-21T08:35:34.880Z,99.90
2018-07-21T08:38:12.119Z,99.90
2018-07-21T08:40:41.960Z,99.90
2018-07-21T08:43:14.380Z,99.90
2018-07-21T08:45:50.128Z,99.90
2018-07-21T08:48:19.948Z,99.90
2018-07-21T08:51:03.011Z,99.90
2018-07-21T08:53:32.756Z,99.90
2018-07-21T08:56:07.228Z,99.90
2018-07-21T08:58:42.236Z,99.90
2018-07-21T09:03:41.457Z,99.90
2018-07-21T09:08:43.337Z,99.90
2018-07-21T09:11:16.836Z,99.90
2018-07-21T09:13:47.752Z,99.90
2018-07-21T09:16:18.596Z,99.90
2018-07-21T09:19:03.680Z,99.90
2018-07-21T09:21:32.508Z,99.90
2018-07-21T09:26:58.996Z,99.90
2018-07-21T09:29:28.848Z,99.90
2018-07-21T09:32:08.244Z,99.90
2018-07-21T09:34:42.820Z,99.90
2018-07-21T09:37:19.980Z,99.90
2018-07-21T09:42:43.376Z,99.90
2018-07-21T09:45:12.092Z,99.90
2018-07-21T09:47:40.868Z,99.90
2018-07-21T09:50:32.584Z,99.90
2018-07-21T09:53:05.916Z,99.90
2018-07-21T09:55:34.738Z,99.90
2018-07-21T09:58:03.556Z,99.90
2018-07-21T10:00:37.616Z,99.90
2018-07-21T10:03:11.868Z,99.90
2018-07-21T10:05:41.596Z,99.90
2018-07-21T10:08:10.384Z,99.90
2018-07-21T10:10:40.143Z,99.90
2018-07-21T10:13:12.480Z,99.90
2018-07-21T10:15:42.616Z,99.90
2018-07-21T10:18:13.464Z,99.90
2018-07-21T10:20:42.488Z,99.90
2018-07-21T10:23:11.528Z,99.90
2018-07-21T10:25:45.840Z,99.90
2018-07-21T10:28:20.134Z,99.90
2018-07-21T10:30:48.885Z,99.90
2018-07-21T10:33:18.742Z,99.90
2018-07-21T10:35:49.472Z,99.90
2018-07-21T10:38:19.408Z,99.90
2018-07-21T10:40:48.876Z,99.90
2018-07-21T10:43:19.244Z,99.90
2018-07-21T10:45:49.583Z,99.90
2018-07-21T10:48:19.428Z,99.90
2018-07-21T10:51:00.437Z,99.90
2018-07-21T10:53:29.320Z,99.90
2018-07-21T10:56:07.656Z,99.90
2018-07-21T11:01:13.337Z,99.90
2018-07-21T11:03:42.503Z,99.90
2018-07-21T11:06:13.272Z,99.90
2018-07-21T11:08:42.113Z,99.90
2018-07-21T11:11:12.480Z,99.90
2018-07-21T11:13:42.152Z,99.90
2018-07-21T11:16:11.049Z,99.90
2018-07-21T11:18:41.376Z,99.90
2018-07-21T11:21:10.300Z,99.90
2018-07-21T11:23:41.056Z,99.90
2018-07-21T11:26:14.001Z,99.90
2018-07-21T11:28:43.793Z,99.90
2018-07-21T11:31:14.740Z,99.90
2018-07-21T11:33:43.484Z,99.90
2018-07-21T11:36:13.554Z,99.90
2018-07-21T11:38:42.024Z,99.90
2018-07-21T11:41:11.383Z,99.90
2018-07-21T11:43:45.876Z,99.90
2018-07-21T11:46:14.700Z,99.90
2018-07-21T11:48:43.568Z,99.90
2018-07-21T11:51:14.324Z,99.90
2018-07-21T11:53:43.224Z,99.90
2018-07-21T11:56:13.328Z,99.90
2018-07-21T11:58:42.136Z,99.90
2018-07-21T12:01:16.968Z,99.90
2018-07-21T12:03:46.868Z,99.90
2018-07-21T12:08:44.544Z,99.90
2018-07-21T12:11:25.084Z,99.90
2018-07-21T12:13:53.885Z,99.90
2018-07-21T12:16:22.732Z,99.90
2018-07-21T12:18:59.511Z,99.90
2018-07-21T12:21:30.900Z,99.90
2018-07-21T12:23:59.903Z,99.90
2018-07-21T12:26:29.745Z,99.90
2018-07-21T12:28:59.499Z,99.90
2018-07-21T12:31:41.328Z,99.90
2018-07-21T12:34:12.236Z,99.90
2018-07-21T12:36:42.515Z,99.90
2018-07-21T12:39:30.924Z,99.90
2018-07-21T12:41:59.883Z,99.90
2018-07-21T12:44:29.640Z,99.90
2018-07-21T12:47:14.718Z,99.90
2018-07-21T12:50:02.826Z,99.90
2018-07-21T12:52:31.724Z,99.90
2018-07-21T12:57:31.020Z,99.90
2018-07-21T12:59:59.832Z,99.90
2018-07-21T13:02:30.573Z,99.90
2018-07-21T13:05:06.892Z,99.90
2018-07-21T13:07:39.360Z,99.90
2018-07-21T13:13:08.236Z,99.90
2018-07-21T13:15:40.864Z,99.90
2018-07-21T13:18:10.652Z,99.90
2018-07-21T13:20:51.684Z,99.90
2018-07-21T13:23:20.555Z,99.90
2018-07-21T13:25:49.655Z,99.90
2018-07-21T13:28:19.236Z,99.90
2018-07-21T13:33:20.257Z,99.90
2018-07-21T13:38:18.563Z,99.90
2018-07-21T13:40:52.339Z,99.90
2018-07-21T13:43:23.147Z,99.90
2018-07-21T13:48:21.923Z,99.90
2018-07-21T13:50:50.703Z,99.90
2018-07-21T13:53:19.487Z,99.90
2018-07-21T13:55:48.288Z,99.90
2018-07-21T13:58:17.179Z,99.90
2018-07-21T14:00:46.943Z,99.90
2018-07-21T14:03:15.763Z,99.90
2018-07-21T14:05:44.572Z,99.90
2018-07-21T14:08:13.351Z,99.90
2018-07-21T14:10:42.119Z,99.90
2018-07-21T14:13:10.915Z,99.90
2018-07-21T14:15:40.727Z,99.90
2018-07-21T14:18:11.575Z,99.90
2018-07-21T14:20:41.484Z,99.90
2018-07-21T14:23:15.183Z,99.90
2018-07-21T14:25:49.763Z,99.90
2018-07-21T14:28:22.503Z,99.90
2018-07-21T14:31:05.452Z,99.90
2018-07-21T14:33:34.307Z,99.90
2018-07-21T14:36:04.210Z,99.90
2018-07-21T14:38:33.055Z,99.90
2018-07-21T14:41:07.471Z,99.90
2018-07-21T14:43:36.358Z,99.90
2018-07-21T14:46:05.099Z,99.90
2018-07-21T14:48:33.904Z,99.90
2018-07-21T14:51:02.674Z,99.90
2018-07-21T14:53:32.487Z,99.90
2018-07-21T14:56:04.371Z,99.90
2018-07-21T14:58:36.211Z,99.90
2018-07-21T15:01:07.091Z,99.90
2018-07-21T15:03:35.963Z,99.90
2018-07-21T15:06:06.795Z,99.90
2018-07-21T15:08:35.583Z,99.90
2018-07-21T15:11:05.382Z,99.90
2018-07-21T15:13:38.285Z,99.90
2018-07-21T15:16:09.076Z,99.90
2018-07-21T15:18:41.175Z,99.90
2018-07-21T15:21:11.928Z,99.90
2018-07-21T15:23:41.775Z,99.90
2018-07-21T15:26:10.572Z,99.90
2018-07-21T15:28:39.279Z,99.90
2018-07-21T15:31:10.126Z,99.90
2018-07-21T15:33:39.988Z,99.90
2018-07-21T15:36:16.847Z,99.90
2018-07-21T15:38:49.419Z,99.90
2018-07-21T15:41:24.163Z,99.90
2018-07-21T15:43:53.231Z,99.90
2018-07-21T15:46:27.306Z,99.90
2018-07-21T15:49:02.048Z,99.90
2018-07-21T15:51:31.779Z,99.90
2018-07-21T15:54:00.751Z,99.90
2018-07-21T15:56:31.511Z,99.90
2018-07-21T15:59:06.028Z,99.90
2018-07-21T16:01:38.261Z,99.90
2018-07-21T16:04:19.351Z,99.90
2018-07-21T16:06:50.095Z,99.90
2018-07-21T16:09:19.908Z,99.90
2018-07-21T16:11:49.647Z,99.90
2018-07-21T16:14:21.560Z,99.90
2018-07-21T16:16:51.415Z,99.90
2018-07-21T16:19:20.191Z,99.90
2018-07-21T16:22:01.460Z,99.90
2018-07-21T16:24:36.060Z,99.90
2018-07-21T16:27:24.824Z,99.90
2018-07-21T16:29:57.688Z,99.90
2018-07-21T16:32:26.569Z,99.90
2018-07-21T16:34:56.314Z,99.90
2018-07-21T16:37:30.211Z,99.90
2018-07-21T16:42:33.619Z,99.90
2018-07-21T16:45:04.523Z,99.90
2018-07-21T16:47:40.783Z,99.90
2018-07-21T16:50:11.567Z,99.90
2018-07-21T16:57:37.467Z,99.90
2018-07-21T17:00:18.543Z,99.90
2018-07-21T17:02:49.351Z,99.90
2018-07-21T17:05:21.051Z,99.90
2018-07-21T17:07:49.859Z,99.90
2018-07-21T17:10:20.776Z,99.90
2018-07-21T17:12:50.627Z,99.90
2018-07-21T17:18:03.923Z,99.90
2018-07-21T17:20:39.431Z,99.90
2018-07-21T17:23:15.175Z,99.90
2018-07-21T17:25:47.415Z,99.90
2018-07-21T17:28:17.187Z,99.90
2018-07-21T17:30:46.051Z,99.90
2018-07-21T17:33:15.835Z,99.90
2018-07-21T17:35:45.057Z,99.90
2018-07-21T17:38:14.903Z,99.90
2018-07-21T17:40:47.911Z,99.90
2018-07-21T17:43:16.718Z,99.90
2018-07-21T17:45:50.306Z,99.90
2018-07-21T17:48:20.219Z,99.90
2018-07-21T17:50:49.083Z,99.90
2018-07-21T17:53:17.918Z,99.90
2018-07-21T17:58:15.215Z,99.90
2018-07-21T18:00:44.062Z,99.90
2018-07-21T18:03:14.822Z,99.90
2018-07-21T18:08:20.578Z,99.90
2018-07-21T18:10:50.318Z,99.90
2018-07-21T18:13:21.094Z,99.90
2018-07-21T18:15:57.958Z,99.90
2018-07-21T18:18:26.654Z,99.90
2018-07-21T18:20:56.437Z,99.90
2018-07-21T18:23:25.206Z,99.90
2018-07-21T18:25:54.882Z,99.90
2018-07-21T18:28:28.606Z,99.90
2018-07-21T18:30:57.366Z,99.90
2018-07-21T18:33:26.173Z,99.90
2018-07-21T18:35:55.914Z,99.90
2018-07-21T18:38:31.082Z,99.90
2018-07-21T18:40:59.915Z,99.90
2018-07-21T18:43:28.698Z,99.90
2018-07-21T18:46:02.923Z,99.90
2018-07-21T18:48:32.766Z,99.90
2018-07-21T18:51:05.974Z,99.90
2018-07-21T18:53:38.714Z,99.90
2018-07-21T18:56:07.678Z,99.90
2018-07-21T18:58:37.535Z,99.90
2018-07-21T19:01:13.162Z,99.90
2018-07-21T19:03:41.926Z,99.90
2018-07-21T19:06:10.742Z,99.90
2018-07-21T19:08:45.874Z,99.90
2018-07-21T19:11:20.154Z,99.90
2018-07-21T19:13:50.043Z,99.90
2018-07-21T19:16:26.322Z,99.90
2018-07-21T19:18:55.406Z,99.90
2018-07-21T19:21:24.337Z,99.90
2018-07-21T19:23:53.375Z,99.90
2018-07-21T19:26:28.109Z,99.90
2018-07-21T19:28:59.243Z,99.90
2018-07-21T19:31:32.191Z,99.90
2018-07-21T19:34:02.095Z,99.90
2018-07-21T19:36:36.950Z,99.90
2018-07-21T19:39:07.102Z,99.90
2018-07-21T19:41:41.806Z,99.90
2018-07-21T19:46:40.807Z,99.90
2018-07-21T19:49:09.983Z,99.90
2018-07-21T19:54:08.327Z,99.90
2018-07-21T19:56:37.539Z,99.90
2018-07-21T19:59:06.647Z,99.90
2018-07-21T20:01:35.943Z,99.90
2018-07-21T20:04:06.762Z,99.90
2018-07-21T20:06:35.510Z,99.90
2018-07-21T20:09:06.527Z,99.90
2018-07-21T20:11:37.300Z,99.90
2018-07-21T20:14:06.315Z,99.90
2018-07-21T20:16:35.142Z,99.90
2018-07-21T20:19:03.932Z,99.90
2018-07-21T20:21:34.790Z,99.90
2018-07-21T20:24:03.621Z,99.90
2018-07-21T20:26:36.062Z,99.90
2018-07-21T20:29:05.950Z,99.90
2018-07-21T20:34:08.823Z,99.90
2018-07-21T20:36:41.359Z,99.90
2018-07-21T20:39:17.407Z,99.90
2018-07-21T20:41:47.183Z,99.90
2018-07-21T20:44:30.778Z,99.90
2018-07-21T20:47:01.534Z,99.90
2018-07-21T20:49:39.866Z,99.90
2018-07-21T20:52:09.803Z,99.90
2018-07-21T20:54:39.613Z,99.90
2018-07-21T20:57:08.489Z,99.90
2018-07-21T20:59:37.351Z,99.90
2018-07-21T21:02:10.028Z,99.90
2018-07-21T21:04:39.923Z,99.90
2018-07-21T21:07:10.743Z,99.90
2018-07-21T21:09:39.587Z,99.90
2018-07-21T21:12:11.506Z,99.90
2018-07-21T21:14:40.382Z,99.90
2018-07-21T21:17:12.907Z,99.90
2018-07-21T21:19:43.782Z,99.90
2018-07-21T21:22:13.050Z,99.90
2018-07-21T21:24:43.070Z,99.90
2018-07-21T21:27:12.055Z,99.90
2018-07-21T21:29:41.217Z,99.90
2018-07-21T21:32:12.098Z,99.90
2018-07-21T21:34:40.946Z,99.90
2018-07-21T21:37:11.750Z,99.90
2018-07-21T21:39:40.566Z,99.90
2018-07-21T21:42:09.566Z,99.90
2018-07-21T21:44:38.314Z,99.90
2018-07-21T21:47:11.215Z,99.90
2018-07-21T21:49:40.019Z,99.90
2018-07-21T21:52:12.858Z,99.90
2018-07-21T21:54:42.686Z,99.90
2018-07-21T21:57:11.590Z,99.90
2018-07-21T21:59:40.475Z,99.90
2018-07-21T22:02:26.634Z,99.90
2018-07-21T22:04:57.537Z,99.90
2018-07-21T22:07:26.406Z,99.90
2018-07-21T22:09:55.290Z,99.90
2018-07-21T22:12:38.866Z,99.90
2018-07-21T22:15:19.198Z,99.90
2018-07-21T22:17:48.166Z,99.90
2018-07-21T22:20:18.115Z,99.90
2018-07-21T22:22:54.454Z,99.90
2018-07-21T22:25:24.498Z,99.90
2018-07-21T22:27:53.346Z,99.90
2018-07-21T22:30:22.274Z,99.90
2018-07-21T22:32:52.050Z,99.90
2018-07-21T22:35:23.891Z,99.90
2018-07-21T22:37:56.127Z,99.90
2018-07-21T22:40:30.893Z,99.90
2018-07-21T22:43:00.722Z,99.90
2018-07-21T22:45:30.547Z,99.90
2018-07-21T22:48:01.476Z,99.90
2018-07-21T22:50:30.374Z,99.90
2018-07-21T22:53:00.278Z,99.90
2018-07-21T22:55:31.118Z,99.90
2018-07-21T22:58:01.042Z,99.90
2018-07-21T23:00:31.098Z,99.90
2018-07-21T23:03:11.098Z,99.90
2018-07-21T23:05:40.015Z,99.90
2018-07-21T23:08:09.930Z,99.90
2018-07-21T23:10:38.783Z,99.90
2018-07-21T23:13:08.607Z,99.90
2018-07-21T23:15:38.454Z,99.90
2018-07-21T23:18:17.557Z,99.90
2018-07-21T23:20:53.358Z,99.90
2018-07-21T23:23:25.710Z,99.90
2018-07-21T23:25:55.678Z,99.90
2018-07-21T23:28:29.274Z,99.90
2018-07-21T23:33:32.594Z,99.90
2018-07-21T23:36:01.454Z,99.90
2018-07-21T23:38:36.302Z,99.90
2018-07-21T23:41:09.690Z,99.90
2018-07-21T23:43:39.505Z,99.90
2018-07-21T23:46:10.359Z,99.90
2018-07-21T23:48:39.296Z,99.90
2018-07-21T23:51:11.537Z,99.90
2018-07-21T23:53:40.534Z,99.90
2018-07-21T23:56:10.458Z,99.90
2018-07-21T23:58:39.330Z,99.90
